e-Mail: Password: Lost your password? Click here. - Register a new user

c h a v e z j u a r e z . c o m

Weather - Tiempo - Wetter - Temps

METAR DATA MMMX (Mexico City)

Mexico City / Licenci, Mexico (MMMX) 19-26N 099-06W
Apr 20, 2019 - 07:51 AM EDT / 2019.04.20 1151 UTC
Wind: from the ENE (070 degrees) at 7 MPH (6 KT):0
Visibility: 10 mile(s):0
Sky conditions: mostly clear
Temperature: 48 F (9 C)
Dew Point: 24 F (-4 C)
Relative Humidity: 39%
Pressure (altimeter): 30.39 in. Hg (1029 hPa)
Pressure tendency: 0.03 inches (1.1 hPa) lower than three hours ago
ob: MMMX 201151Z 07006KT 10SM FEW020 09/M04 A3039 NOSIG RMK SLP097 57011 906 8/500 HZY CI
cycle: 12

Mexico City

St. Prex




Current weather alarms for Switzerland


www.wetteralarm.ch